createdAt,value
2023-04-21T00:01:55.307Z,9.60
2023-04-21T00:04:22.483Z,9.60
2023-04-21T00:06:50.599Z,11.52
2023-04-21T00:09:18.704Z,10.18
2023-04-21T00:11:45.950Z,10.48
2023-04-21T00:14:12.913Z,11.10
2023-04-21T00:16:39.806Z,11.02
2023-04-21T00:19:07.558Z,11.15
2023-04-21T00:21:35.578Z,10.90
2023-04-21T00:24:02.565Z,11.00
2023-04-21T00:26:29.403Z,11.52
2023-04-21T00:28:56.269Z,11.23
2023-04-21T00:31:23.274Z,11.32
2023-04-21T00:33:50.234Z,11.45
2023-04-21T00:36:17.018Z,11.90
2023-04-21T00:38:43.907Z,11.30
2023-04-21T00:41:10.843Z,11.45
2023-04-21T00:43:37.697Z,11.48
2023-04-21T00:46:04.747Z,11.20
2023-04-21T00:48:31.547Z,10.82
2023-04-21T00:50:58.398Z,10.85
2023-04-21T00:53:25.458Z,11.15
2023-04-21T00:55:52.583Z,10.50
2023-04-21T00:58:19.526Z,10.32
2023-04-21T01:00:46.457Z,9.82
2023-04-21T01:03:13.526Z,9.13
2023-04-21T01:05:41.496Z,10.38
2023-04-21T01:08:08.450Z,9.85
2023-04-21T01:10:35.393Z,10.35
2023-04-21T01:13:02.207Z,10.25
2023-04-21T01:15:31.199Z,10.63
2023-04-21T01:17:58.318Z,10.82
2023-04-21T01:20:25.466Z,10.57
2023-04-21T01:22:52.448Z,9.85
2023-04-21T01:25:22.344Z,10.45
2023-04-21T01:27:49.279Z,9.63
2023-04-21T01:30:16.127Z,9.45
2023-04-21T01:32:43.070Z,10.48
2023-04-21T01:35:10.288Z,10.25
2023-04-21T01:37:37.345Z,9.85
2023-04-21T01:40:09.197Z,10.93
2023-04-21T01:42:41.068Z,9.43
2023-04-21T01:45:08.749Z,9.80
2023-04-21T01:47:35.671Z,10.52
2023-04-21T01:50:03.634Z,10.10
2023-04-21T01:52:30.612Z,9.10
2023-04-21T01:54:57.491Z,9.00
2023-04-21T01:57:24.512Z,9.07
2023-04-21T01:59:51.331Z,9.07
2023-04-21T02:02:18.295Z,8.80
2023-04-21T02:04:45.218Z,10.15
2023-04-21T02:07:12.072Z,10.30
2023-04-21T02:09:38.945Z,8.07
2023-04-21T02:12:06.145Z,10.57
2023-04-21T02:14:32.992Z,9.20
2023-04-21T02:16:59.908Z,8.90
2023-04-21T02:19:26.956Z,9.85
2023-04-21T02:21:53.829Z,9.70
2023-04-21T02:24:20.640Z,8.88
2023-04-21T02:26:47.516Z,8.52
2023-04-21T02:29:14.369Z,8.93
2023-04-21T02:31:57.318Z,9.02
2023-04-21T02:34:26.023Z,7.68
2023-04-21T02:36:52.825Z,7.57
2023-04-21T02:39:20.127Z,8.43
2023-04-21T02:41:47.098Z,8.75
2023-04-21T02:44:13.891Z,9.63
2023-04-21T02:46:43.684Z,9.75
2023-04-21T02:49:11.035Z,8.52
2023-04-21T02:51:37.804Z,8.43
2023-04-21T02:54:04.804Z,9.02
2023-04-21T02:56:32.050Z,9.15
2023-04-21T02:58:58.860Z,8.43
2023-04-21T03:01:25.723Z,8.85
2023-04-21T03:03:52.757Z,8.73
2023-04-21T03:06:19.775Z,8.63
2023-04-21T03:08:46.664Z,8.55
2023-04-21T03:11:13.459Z,8.05
2023-04-21T03:13:40.247Z,9.00
2023-04-21T03:16:07.378Z,8.63
2023-04-21T03:18:36.235Z,7.90
2023-04-21T03:21:03.265Z,8.93
2023-04-21T03:23:30.103Z,9.43
2023-04-21T03:25:56.931Z,10.00
2023-04-21T03:28:23.736Z,8.43
2023-04-21T03:30:50.621Z,8.95
2023-04-21T03:33:17.478Z,9.35
2023-04-21T03:35:44.283Z,8.18
2023-04-21T03:38:11.107Z,9.27
2023-04-21T03:40:37.918Z,9.05
2023-04-21T03:43:04.816Z,8.98
2023-04-21T03:45:31.730Z,8.93
2023-04-21T03:47:58.727Z,8.48
2023-04-21T03:50:25.818Z,7.93
2023-04-21T03:52:52.738Z,8.45
2023-04-21T03:55:19.748Z,8.93
2023-04-21T03:57:46.655Z,8.73
2023-04-21T04:00:14.340Z,8.13
2023-04-21T04:02:41.904Z,8.63
2023-04-21T04:05:09.013Z,8.82
2023-04-21T04:07:36.263Z,7.85
2023-04-21T04:10:03.340Z,7.53
2023-04-21T04:12:31.112Z,7.10
2023-04-21T04:14:58.045Z,6.57
2023-04-21T04:17:24.964Z,7.30
2023-04-21T04:19:51.828Z,8.15
2023-04-21T04:22:18.705Z,7.35
2023-04-21T04:24:45.745Z,6.97
2023-04-21T04:27:15.499Z,6.53
2023-04-21T04:29:43.923Z,7.40
2023-04-21T04:32:11.246Z,6.88
2023-04-21T04:34:38.658Z,7.68
2023-04-21T04:37:06.498Z,7.57
2023-04-21T04:39:33.462Z,7.38
2023-04-21T04:42:01.325Z,8.50
2023-04-21T04:44:28.342Z,7.20
2023-04-21T04:46:56.539Z,7.80
2023-04-21T04:49:24.215Z,7.25
2023-04-21T04:51:51.479Z,7.03
2023-04-21T04:54:18.571Z,8.20
2023-04-21T04:56:46.138Z,7.45
2023-04-21T04:59:13.082Z,8.45
2023-04-21T05:01:41.926Z,8.55
2023-04-21T05:04:09.060Z,7.80
2023-04-21T05:06:36.206Z,7.72
2023-04-21T05:09:04.862Z,8.23
2023-04-21T05:11:32.059Z,8.25
2023-04-21T05:13:59.220Z,8.43
2023-04-21T05:16:26.122Z,9.35
2023-04-21T05:18:55.764Z,8.68
2023-04-21T05:21:29.824Z,8.60
2023-04-21T05:23:58.457Z,8.75
2023-04-21T05:26:27.629Z,9.50
2023-04-21T05:28:56.735Z,8.88
2023-04-21T05:31:24.805Z,8.60
2023-04-21T05:33:52.338Z,8.73
2023-04-21T05:36:24.872Z,9.77
2023-04-21T05:38:52.539Z,8.73
2023-04-21T05:41:19.354Z,8.63
2023-04-21T05:43:47.587Z,9.20
2023-04-21T05:46:14.707Z,8.68
2023-04-21T05:48:41.704Z,8.52
2023-04-21T05:51:15.512Z,8.60
2023-04-21T05:53:44.775Z,10.40
2023-04-21T05:56:12.965Z,9.50
2023-04-21T05:58:39.983Z,8.65
2023-04-21T06:01:06.832Z,8.75
2023-04-21T06:03:34.416Z,9.27
2023-04-21T06:06:05.872Z,8.50
2023-04-21T06:08:33.272Z,8.43
2023-04-21T06:11:00.096Z,8.65
2023-04-21T06:13:27.788Z,8.63
2023-04-21T06:15:55.597Z,8.10
2023-04-21T06:18:23.997Z,7.38
2023-04-21T06:20:52.397Z,9.13
2023-04-21T06:23:19.366Z,8.20
2023-04-21T06:25:46.354Z,8.10
2023-04-21T06:28:13.473Z,7.68
2023-04-21T06:30:40.504Z,8.35
2023-04-21T06:33:07.445Z,6.88
2023-04-21T06:35:34.333Z,7.15
2023-04-21T06:38:02.638Z,8.40
2023-04-21T06:40:29.493Z,7.47
2023-04-21T06:42:56.370Z,7.80
2023-04-21T06:45:23.372Z,8.73
2023-04-21T06:47:50.284Z,7.75
2023-04-21T06:50:17.311Z,7.55
2023-04-21T06:52:44.155Z,7.75
2023-04-21T06:55:11.326Z,7.03
2023-04-21T06:57:38.181Z,8.23
2023-04-21T07:00:06.386Z,8.52
2023-04-21T07:02:33.337Z,8.20
2023-04-21T07:05:00.298Z,7.90
2023-04-21T07:07:27.303Z,8.05
2023-04-21T07:09:54.114Z,7.32
2023-04-21T07:12:21.430Z,8.20
2023-04-21T07:14:48.268Z,8.18
2023-04-21T07:17:15.209Z,7.32
2023-04-21T07:19:42.031Z,7.32
2023-04-21T07:22:08.952Z,6.90
2023-04-21T07:24:37.400Z,7.45
2023-04-21T07:27:04.408Z,7.20
2023-04-21T07:29:31.400Z,7.45
2023-04-21T07:31:58.962Z,7.82
2023-04-21T07:34:25.914Z,7.32
2023-04-21T07:36:53.238Z,6.30
2023-04-21T07:39:20.233Z,6.40
2023-04-21T07:41:47.495Z,5.50
2023-04-21T07:44:14.421Z,6.22
2023-04-21T07:46:41.562Z,6.13
2023-04-21T07:49:08.611Z,6.30
2023-04-21T07:51:35.544Z,6.07
2023-04-21T07:54:02.441Z,6.03
2023-04-21T07:56:29.322Z,6.13
2023-04-21T07:58:56.258Z,5.18
2023-04-21T08:01:23.796Z,6.22
2023-04-21T08:03:50.732Z,5.40
2023-04-21T08:06:17.815Z,5.50
2023-04-21T08:08:44.796Z,5.32
2023-04-21T08:11:11.674Z,5.25
2023-04-21T08:13:38.597Z,5.30
2023-04-21T08:16:06.031Z,4.85
2023-04-21T08:18:33.016Z,4.38
2023-04-21T08:20:59.961Z,4.90
2023-04-21T08:23:27.004Z,4.80
2023-04-21T08:25:54.126Z,4.88
2023-04-21T08:28:21.032Z,5.75
2023-04-21T08:30:47.976Z,5.93
2023-04-21T08:33:23.921Z,5.20
2023-04-21T08:36:02.395Z,6.72
2023-04-21T08:38:33.903Z,5.75
2023-04-21T08:41:01.469Z,5.38
2023-04-21T08:43:29.631Z,6.28
2023-04-21T08:45:57.791Z,6.55
2023-04-21T08:48:27.901Z,5.93
2023-04-21T08:50:54.897Z,5.60
2023-04-21T08:53:22.238Z,5.32
2023-04-21T08:56:09.867Z,6.03
2023-04-21T08:58:37.502Z,4.88
2023-04-21T09:01:04.516Z,4.00
2023-04-21T09:03:31.595Z,4.38
2023-04-21T09:05:59.053Z,4.40
2023-04-21T09:08:28.511Z,4.07
2023-04-21T09:10:56.565Z,4.30
2023-04-21T09:13:35.628Z,4.20
2023-04-21T09:16:14.763Z,3.88
2023-04-21T09:18:44.176Z,3.70
2023-04-21T09:21:19.726Z,3.40
2023-04-21T09:23:55.548Z,3.70
2023-04-21T09:26:23.166Z,4.60
2023-04-21T09:28:53.092Z,4.68
2023-04-21T09:31:24.891Z,4.50
2023-04-21T09:34:00.026Z,3.75
2023-04-21T09:36:31.967Z,3.60
2023-04-21T09:41:34.190Z,4.28
2023-04-21T09:44:01.637Z,4.43
2023-04-21T09:46:36.693Z,4.78
2023-04-21T09:49:05.449Z,4.18
2023-04-21T09:51:56.177Z,4.45
2023-04-21T09:56:58.014Z,4.53
2023-04-21T09:59:46.984Z,4.03
2023-04-21T10:02:14.669Z,4.93
2023-04-21T10:04:44.200Z,5.85
2023-04-21T10:07:12.644Z,5.43
2023-04-21T10:09:57.832Z,4.55
2023-04-21T10:12:27.010Z,5.13
2023-04-21T10:14:55.838Z,5.88
2023-04-21T10:17:27.104Z,5.95
2023-04-21T10:19:58.617Z,5.00
2023-04-21T10:22:36.169Z,5.13
2023-04-21T10:25:09.620Z,5.00
2023-04-21T10:27:43.265Z,5.28
2023-04-21T10:30:28.869Z,5.30
2023-04-21T10:33:06.447Z,4.55
2023-04-21T10:36:03.981Z,4.57
2023-04-21T10:38:43.148Z,3.78
2023-04-21T10:41:30.679Z,4.07
2023-04-21T10:44:10.341Z,3.63
2023-04-21T10:46:46.228Z,3.72
2023-04-21T10:49:27.079Z,3.22
2023-04-21T10:52:00.598Z,4.40
2023-04-21T10:54:31.713Z,4.28
2023-04-21T10:56:59.632Z,4.25
2023-04-21T10:59:29.510Z,4.15
2023-04-21T11:01:57.304Z,3.33
2023-04-21T11:04:24.884Z,4.47
2023-04-21T11:07:12.171Z,4.45
2023-04-21T11:09:41.948Z,4.07
2023-04-21T11:12:18.490Z,3.92
2023-04-21T11:14:50.600Z,4.03
2023-04-21T11:17:20.375Z,3.42
2023-04-21T11:19:54.055Z,3.72
2023-04-21T11:22:27.030Z,3.60
2023-04-21T11:24:57.832Z,2.78
2023-04-21T11:27:28.682Z,3.15
2023-04-21T11:29:55.890Z,2.95
2023-04-21T11:32:23.394Z,2.80
2023-04-21T11:34:50.410Z,2.78
2023-04-21T11:37:27.966Z,2.15
2023-04-21T11:40:01.690Z,1.98
2023-04-21T11:42:29.193Z,1.63
2023-04-21T11:44:57.087Z,1.65
2023-04-21T11:47:28.920Z,1.95
2023-04-21T11:50:02.245Z,1.90
2023-04-21T11:52:37.481Z,1.70
2023-04-21T11:55:16.175Z,1.80
2023-04-21T11:57:43.250Z,2.08
2023-04-21T12:00:16.092Z,1.85
2023-04-21T12:02:44.013Z,1.98
2023-04-21T12:05:13.612Z,1.92
2023-04-21T12:07:52.087Z,2.60
2023-04-21T12:10:21.448Z,2.35
2023-04-21T12:12:49.070Z,2.42
2023-04-21T12:15:23.551Z,2.00
2023-04-21T12:17:53.060Z,1.88
2023-04-21T12:20:23.140Z,2.05
2023-04-21T12:22:51.041Z,2.05
2023-04-21T12:25:18.179Z,1.67
2023-04-21T12:27:52.630Z,1.40
2023-04-21T12:30:31.677Z,1.08
2023-04-21T12:32:59.447Z,1.00
2023-04-21T12:35:26.886Z,0.88
2023-04-21T12:37:53.989Z,1.13
2023-04-21T12:40:21.168Z,1.08
2023-04-21T12:42:48.855Z,1.27
2023-04-21T12:45:15.869Z,1.02
2023-04-21T12:47:45.445Z,0.85
2023-04-21T12:50:14.411Z,0.82
2023-04-21T12:52:41.219Z,1.20
2023-04-21T12:55:08.778Z,1.77
2023-04-21T12:57:35.864Z,1.08
2023-04-21T13:00:04.384Z,1.50
2023-04-21T13:02:37.084Z,1.20
2023-04-21T13:05:07.275Z,1.38
2023-04-21T13:07:34.590Z,1.40
2023-04-21T13:10:02.578Z,1.20
2023-04-21T13:12:29.435Z,1.58
2023-04-21T13:14:56.610Z,1.63
2023-04-21T13:17:26.554Z,1.30
2023-04-21T13:19:53.458Z,1.50
2023-04-21T13:22:20.418Z,1.40
2023-04-21T13:24:47.251Z,1.40
2023-04-21T13:27:14.310Z,1.15
2023-04-21T13:29:41.144Z,1.38
2023-04-21T13:32:08.811Z,1.10
2023-04-21T13:34:36.139Z,0.82
2023-04-21T13:37:03.002Z,1.10
2023-04-21T13:39:30.210Z,1.35
2023-04-21T13:41:57.985Z,1.20
2023-04-21T13:44:24.927Z,1.30
2023-04-21T13:46:53.797Z,1.00
2023-04-21T13:49:21.035Z,1.05
2023-04-21T13:51:47.897Z,1.20
2023-04-21T13:54:16.863Z,1.05
2023-04-21T13:56:43.785Z,1.13
2023-04-21T13:59:10.910Z,1.00
2023-04-21T14:01:37.857Z,0.85
2023-04-21T14:04:04.895Z,0.90
2023-04-21T14:06:33.094Z,0.88
2023-04-21T14:08:59.949Z,1.02
2023-04-21T14:11:26.862Z,1.05
2023-04-21T14:14:08.358Z,0.98
2023-04-21T14:16:36.249Z,0.52
2023-04-21T14:19:03.388Z,0.75
2023-04-21T14:21:30.984Z,0.60
2023-04-21T14:23:57.877Z,0.77
2023-04-21T14:26:24.798Z,0.68
2023-04-21T14:28:51.857Z,0.50
2023-04-21T14:31:21.664Z,0.50
2023-04-21T14:33:49.022Z,0.45
2023-04-21T14:36:15.924Z,0.50
2023-04-21T14:38:43.242Z,0.70
2023-04-21T14:41:10.296Z,0.60
2023-04-21T14:43:37.212Z,0.60
2023-04-21T14:46:04.681Z,0.50
2023-04-21T14:48:32.492Z,0.70
2023-04-21T14:50:59.489Z,0.70
2023-04-21T14:53:26.548Z,0.40
2023-04-21T14:55:54.719Z,0.50
2023-04-21T14:58:21.681Z,0.47
2023-04-21T15:00:48.681Z,0.60
2023-04-21T15:03:16.091Z,0.57
2023-04-21T15:05:43.130Z,0.40
2023-04-21T15:08:11.778Z,0.43
2023-04-21T15:10:38.638Z,0.50
2023-04-21T15:13:05.694Z,0.40
2023-04-21T15:15:32.618Z,0.30
2023-04-21T15:17:59.540Z,0.30
2023-04-21T15:20:36.916Z,0.40
2023-04-21T15:23:13.627Z,0.20
2023-04-21T15:25:40.993Z,0.38
2023-04-21T15:28:08.605Z,0.45
2023-04-21T15:30:35.898Z,0.50
2023-04-21T15:33:02.999Z,0.40
2023-04-21T15:35:30.279Z,0.40
2023-04-21T15:37:57.243Z,0.30
2023-04-21T15:40:24.346Z,0.50
2023-04-21T15:42:51.261Z,0.57
2023-04-21T15:45:18.450Z,0.50
2023-04-21T15:47:45.598Z,0.45
2023-04-21T15:50:12.641Z,0.50
2023-04-21T15:52:43.186Z,0.50
2023-04-21T15:55:13.247Z,0.60
2023-04-21T15:57:40.441Z,0.40
2023-04-21T16:00:10.270Z,0.45
2023-04-21T16:02:37.599Z,0.40
2023-04-21T16:05:05.064Z,0.40
2023-04-21T16:07:32.208Z,0.40
2023-04-21T16:09:59.109Z,0.40
2023-04-21T16:12:26.025Z,0.57
2023-04-21T16:14:59.402Z,0.45
2023-04-21T16:17:31.977Z,0.40
2023-04-21T16:19:58.935Z,0.40
2023-04-21T16:22:26.048Z,0.70
2023-04-21T16:24:53.372Z,0.60
2023-04-21T16:27:20.805Z,0.68
2023-04-21T16:29:47.756Z,0.45
2023-04-21T16:32:14.614Z,0.63
2023-04-21T16:34:42.228Z,0.60
2023-04-21T16:37:09.386Z,0.70
2023-04-21T16:39:36.404Z,0.70
2023-04-21T16:42:03.324Z,0.60
2023-04-21T16:44:30.832Z,0.63
2023-04-21T16:46:57.742Z,0.70
2023-04-21T16:49:24.653Z,0.52
2023-04-21T16:51:51.415Z,0.55
2023-04-21T16:54:18.300Z,0.60
2023-04-21T16:56:45.148Z,0.70
2023-04-21T16:59:12.031Z,0.65
2023-04-21T17:01:38.955Z,0.60
2023-04-21T17:04:06.053Z,0.60
2023-04-21T17:06:34.110Z,0.60
2023-04-21T17:09:01.114Z,0.73
2023-04-21T17:11:28.720Z,0.50
2023-04-21T17:13:55.638Z,0.57
2023-04-21T17:16:22.719Z,0.60
2023-04-21T17:18:49.621Z,0.60
2023-04-21T17:21:16.538Z,0.73
2023-04-21T17:23:43.437Z,0.90
2023-04-21T17:26:12.878Z,0.70
2023-04-21T17:28:40.087Z,0.85
2023-04-21T17:31:14.544Z,0.80
2023-04-21T17:33:44.135Z,0.80
2023-04-21T17:36:11.587Z,0.60
2023-04-21T17:38:38.662Z,0.80
2023-04-21T17:41:07.668Z,0.90
2023-04-21T17:43:34.618Z,0.60
2023-04-21T17:46:01.562Z,0.73
2023-04-21T17:48:28.594Z,0.68
2023-04-21T17:50:55.410Z,0.80
2023-04-21T17:53:22.354Z,0.82
2023-04-21T17:55:49.849Z,1.23
2023-04-21T17:58:18.405Z,0.80
2023-04-21T18:00:45.351Z,1.13
2023-04-21T18:03:12.312Z,1.10
2023-04-21T18:05:39.722Z,0.88
2023-04-21T18:08:06.614Z,0.82
2023-04-21T18:10:33.495Z,0.98
2023-04-21T18:13:00.402Z,1.17
2023-04-21T18:15:27.363Z,0.80
2023-04-21T18:17:54.265Z,0.95
2023-04-21T18:20:21.506Z,1.13
2023-04-21T18:22:49.664Z,1.00
2023-04-21T18:25:27.355Z,0.82
2023-04-21T18:28:05.401Z,1.10
2023-04-21T18:30:32.328Z,0.90
2023-04-21T18:32:59.318Z,1.10
2023-04-21T18:35:26.147Z,1.10
2023-04-21T18:37:53.058Z,1.00
2023-04-21T18:40:20.245Z,1.20
2023-04-21T18:42:47.086Z,1.67
2023-04-21T18:45:13.969Z,1.00
2023-04-21T18:47:41.035Z,1.48
2023-04-21T18:50:09.194Z,1.33
2023-04-21T18:52:36.102Z,1.60
2023-04-21T18:55:03.058Z,1.23
2023-04-21T18:57:30.522Z,1.45
2023-04-21T18:59:57.417Z,1.30
2023-04-21T19:02:24.514Z,1.52
2023-04-21T19:04:53.187Z,1.08
2023-04-21T19:07:20.192Z,1.50
2023-04-21T19:09:47.011Z,2.03
2023-04-21T19:12:14.625Z,1.85
2023-04-21T19:14:47.271Z,1.92
2023-04-21T19:17:15.619Z,1.80
2023-04-21T19:19:42.856Z,2.40
2023-04-21T19:22:09.764Z,3.67
2023-04-21T19:24:36.942Z,3.70
2023-04-21T19:27:06.085Z,3.40
2023-04-21T19:29:33.508Z,2.90
2023-04-21T19:32:00.567Z,2.40
2023-04-21T19:34:27.553Z,2.85
2023-04-21T19:36:54.550Z,4.75
2023-04-21T19:39:21.483Z,8.05
2023-04-21T19:41:48.279Z,13.55
2023-04-21T19:44:15.305Z,12.52
2023-04-21T19:46:43.124Z,5.32
2023-04-21T19:49:14.020Z,2.53
2023-04-21T19:51:41.431Z,2.42
2023-04-21T19:54:11.876Z,1.73
2023-04-21T19:56:40.708Z,1.33
2023-04-21T19:59:07.897Z,1.35
2023-04-21T20:01:34.865Z,1.88
2023-04-21T20:04:02.457Z,0.82
2023-04-21T20:06:29.525Z,0.90
2023-04-21T20:08:56.765Z,2.53
2023-04-21T20:11:23.748Z,1.10
2023-04-21T20:13:50.798Z,0.70
2023-04-21T20:16:18.204Z,0.57
2023-04-21T20:18:45.347Z,0.40
2023-04-21T20:21:12.508Z,0.40
2023-04-21T20:23:39.527Z,0.40
2023-04-21T20:26:06.653Z,0.50
2023-04-21T20:28:33.525Z,0.60
2023-04-21T20:31:00.672Z,0.57
2023-04-21T20:33:28.160Z,0.70
2023-04-21T20:35:55.528Z,3.17
2023-04-21T20:38:23.996Z,2.88
2023-04-21T20:40:52.355Z,5.13
2023-04-21T20:43:19.993Z,2.90
2023-04-21T20:45:50.330Z,1.55
2023-04-21T20:48:17.179Z,1.50
2023-04-21T20:50:46.030Z,0.70
2023-04-21T20:53:13.730Z,0.40
2023-04-21T20:55:40.641Z,0.60
2023-04-21T20:58:07.503Z,0.40
2023-04-21T21:00:34.829Z,0.50
2023-04-21T21:03:01.993Z,0.50
2023-04-21T21:05:30.350Z,0.50
2023-04-21T21:07:57.445Z,0.60
2023-04-21T21:10:24.403Z,0.50
2023-04-21T21:12:51.295Z,0.60
2023-04-21T21:15:18.172Z,0.40
2023-04-21T21:17:45.305Z,0.50
2023-04-21T21:20:12.393Z,0.45
2023-04-21T21:22:39.338Z,0.40
2023-04-21T21:25:06.529Z,0.40
2023-04-21T21:27:33.350Z,0.40
2023-04-21T21:30:00.380Z,0.47
2023-04-21T21:32:27.194Z,0.60
2023-04-21T21:34:54.093Z,0.60
2023-04-21T21:37:21.410Z,0.60
2023-04-21T21:39:48.567Z,0.40
2023-04-21T21:42:15.651Z,0.40
2023-04-21T21:44:42.460Z,0.50
2023-04-21T21:47:09.356Z,0.60
2023-04-21T21:49:38.311Z,0.68
2023-04-21T21:52:06.022Z,0.70
2023-04-21T21:54:32.903Z,0.50
2023-04-21T21:56:59.780Z,0.57
2023-04-21T21:59:26.749Z,0.38
2023-04-21T22:01:53.901Z,0.65
2023-04-21T22:04:21.064Z,0.52
2023-04-21T22:06:48.247Z,0.80
2023-04-21T22:09:15.506Z,0.80
2023-04-21T22:11:42.416Z,0.60
2023-04-21T22:14:21.977Z,0.93
2023-04-21T22:16:50.911Z,0.63
2023-04-21T22:19:19.158Z,0.90
2023-04-21T22:21:46.301Z,0.90
2023-04-21T22:24:13.184Z,0.98
2023-04-21T22:26:40.312Z,0.88
2023-04-21T22:29:07.362Z,1.05
2023-04-21T22:31:34.615Z,1.00
2023-04-21T22:34:01.537Z,1.23
2023-04-21T22:36:28.550Z,1.00
2023-04-21T22:38:55.348Z,1.20
2023-04-21T22:41:22.485Z,0.90
2023-04-21T22:43:49.345Z,0.98
2023-04-21T22:46:16.219Z,0.95
2023-04-21T22:48:46.360Z,0.70
2023-04-21T22:51:14.410Z,0.85
2023-04-21T22:53:41.245Z,0.77
2023-04-21T22:56:08.101Z,0.93
2023-04-21T22:58:34.922Z,0.75
2023-04-21T23:01:02.107Z,1.00
2023-04-21T23:03:30.483Z,1.08
2023-04-21T23:05:57.423Z,1.50
2023-04-21T23:08:24.265Z,1.20
2023-04-21T23:10:54.588Z,1.58
2023-04-21T23:13:21.427Z,1.23
2023-04-21T23:15:48.320Z,1.35
2023-04-21T23:18:15.216Z,1.23
2023-04-21T23:20:42.102Z,2.08
2023-04-21T23:23:09.004Z,1.15
2023-04-21T23:25:36.170Z,1.33
2023-04-21T23:28:03.042Z,1.70
2023-04-21T23:30:30.236Z,1.25
2023-04-21T23:32:57.171Z,1.20
2023-04-21T23:35:24.185Z,1.25
2023-04-21T23:37:51.040Z,0.98
2023-04-21T23:40:17.957Z,1.00
2023-04-21T23:42:47.138Z,0.80
2023-04-21T23:45:15.284Z,0.65
2023-04-21T23:47:42.252Z,0.90
2023-04-21T23:50:09.851Z,0.80
2023-04-21T23:52:36.912Z,0.65
2023-04-21T23:55:04.074Z,0.80
2023-04-21T23:57:30.886Z,0.60
2023-04-21T23:59:58.010Z,0.80
